Time;durP1;ratioP1;P1;durP2;ratioP2;P2;SDS_P1;SDS_P2;PMS_P1;PMS_P2;Temp;Humidity;BMP_temperature;BMP_pressure;BME280_temperature;BME280_humidity;BME280_pressure;Samples;Min_cycle;Max_cycle;Signal;HPM_P1;HPM_P2
2023/09/27 00:00:01;;;;;;;19.10;13.50;;;18.50;64.10;;;;;;5029084;27;115401;-79
2023/09/27 00:02:42;;;;;;;14.27;12.18;;;18.40;64.00;;;;;;5015307;27;114172;-78
2023/09/27 00:05:11;;;;;;;20.73;15.00;;;18.50;63.30;;;;;;5049522;27;114037;-77
2023/09/27 00:07:39;;;;;;;15.07;11.80;;;18.40;64.00;;;;;;5030140;27;114982;-78
2023/09/27 00:10:11;;;;;;;14.02;10.50;;;18.40;63.10;;;;;;5030142;27;114535;-78
2023/09/27 00:12:39;;;;;;;14.63;11.40;;;18.30;62.50;;;;;;5048713;27;114433;-79
2023/09/27 00:15:08;;;;;;;15.27;12.57;;;18.20;62.70;;;;;;5030733;27;114847;-79
2023/09/27 00:17:35;;;;;;;15.68;10.10;;;18.00;63.50;;;;;;5047566;27;114997;-79
2023/09/27 00:20:03;;;;;;;16.35;13.00;;;17.80;63.60;;;;;;5047825;27;114815;-79
2023/09/27 00:22:31;;;;;;;16.20;11.15;;;17.70;64.40;;;;;;5030647;27;114280;-79
2023/09/27 00:24:59;;;;;;;13.82;11.27;;;17.60;64.20;;;;;;5048802;27;114120;-79
2023/09/27 00:27:26;;;;;;;15.18;11.48;;;17.60;64.60;;;;;;5047413;27;115401;-79
2023/09/27 00:29:53;;;;;;;13.70;10.82;;;17.60;65.10;;;;;;5048081;27;114923;-80
2023/09/27 00:32:21;;;;;;;13.38;11.52;;;17.60;65.00;;;;;;5030270;27;114427;-80
2023/09/27 00:34:48;;;;;;;14.02;10.27;;;17.70;64.80;;;;;;5012698;27;114395;-79
2023/09/27 00:37:15;;;;;;;16.60;11.73;;;17.70;64.30;;;;;;5047201;27;114713;-79
2023/09/27 00:39:42;;;;;;;12.68;9.63;;;17.70;65.20;;;;;;5047520;27;114555;-78
2023/09/27 00:42:09;;;;;;;14.30;11.27;;;17.70;64.10;;;;;;5030108;27;114112;-78
2023/09/27 00:44:36;;;;;;;17.85;11.40;;;17.70;64.70;;;;;;5030380;27;114778;-78
2023/09/27 00:47:04;;;;;;;14.43;11.27;;;17.80;64.50;;;;;;5029023;27;116681;-79
2023/09/27 00:49:31;;;;;;;17.20;10.88;;;17.90;64.70;;;;;;5047668;27;115009;-79
2023/09/27 00:51:59;;;;;;;11.90;9.15;;;17.90;64.50;;;;;;5030364;27;114313;-78
2023/09/27 00:54:26;;;;;;;14.63;11.45;;;17.90;63.60;;;;;;5030710;27;114276;-79
2023/09/27 00:56:53;;;;;;;15.38;10.50;;;17.90;65.10;;;;;;5012386;27;117793;-79
2023/09/27 00:59:21;;;;;;;13.98;10.88;;;17.90;64.70;;;;;;5047449;27;114685;-79
2023/09/27 01:01:48;;;;;;;12.82;10.77;;;18.00;63.80;;;;;;5029369;27;114301;-79
2023/09/27 01:04:15;;;;;;;12.50;10.80;;;18.10;64.30;;;;;;5048124;27;114032;-78
2023/09/27 01:06:43;;;;;;;12.05;10.80;;;18.20;64.60;;;;;;5047143;27;114954;-78
2023/09/27 01:09:13;;;;;;;12.85;9.88;;;18.20;64.00;;;;;;5029130;27;114653;-78
2023/09/27 01:11:40;;;;;;;13.32;10.52;;;18.30;63.20;;;;;;5048047;27;114238;-78
2023/09/27 01:14:08;;;;;;;12.52;10.93;;;18.20;63.90;;;;;;5013005;27;114172;-78
2023/09/27 01:16:36;;;;;;;14.02;10.68;;;18.30;64.50;;;;;;5046909;27;114884;-78
2023/09/27 01:19:04;;;;;;;15.05;10.10;;;18.40;64.50;;;;;;5012441;27;114651;-78
2023/09/27 01:21:31;;;;;;;12.60;10.15;;;18.50;63.60;;;;;;5028446;27;114183;-78
2023/09/27 01:23:58;;;;;;;12.25;9.65;;;18.60;63.80;;;;;;5029747;27;114350;-78
2023/09/27 01:26:27;;;;;;;12.63;9.70;;;18.70;63.10;;;;;;5010678;27;115206;-79
2023/09/27 01:28:54;;;;;;;13.60;10.13;;;18.70;63.40;;;;;;5028811;27;114689;-78
2023/09/27 01:31:22;;;;;;;13.45;10.15;;;18.80;63.10;;;;;;5011908;27;114206;-79
2023/09/27 01:33:49;;;;;;;12.70;9.63;;;18.80;62.90;;;;;;5047651;27;114217;-79
2023/09/27 01:36:18;;;;;;;12.55;9.50;;;18.80;63.00;;;;;;5028602;27;115375;-79
2023/09/27 01:38:45;;;;;;;12.48;10.05;;;18.90;62.90;;;;;;4995181;27;117471;-78
2023/09/27 01:41:13;;;;;;;11.25;9.73;;;19.00;63.00;;;;;;5012627;27;114493;-78
2023/09/27 01:43:40;;;;;;;12.55;9.65;;;19.00;62.30;;;;;;4996785;27;114150;-78
2023/09/27 01:46:07;;;;;;;12.00;9.93;;;19.00;62.50;;;;;;5014596;27;114881;-78
2023/09/27 01:48:34;;;;;;;10.13;8.35;;;19.00;62.40;;;;;;5008049;28;114741;-79
2023/09/27 01:51:02;;;;;;;12.20;8.73;;;19.10;62.40;;;;;;5026663;28;114158;-78
2023/09/27 01:53:29;;;;;;;11.02;9.20;;;19.10;61.70;;;;;;5027036;28;113950;-77
2023/09/27 01:55:56;;;;;;;11.57;9.48;;;19.10;62.20;;;;;;4991825;28;114831;-78
2023/09/27 01:58:23;;;;;;;11.48;9.38;;;19.10;62.30;;;;;;5008003;28;114591;-78
2023/09/27 02:00:50;;;;;;;14.20;9.90;;;19.10;61.80;;;;;;5008870;28;114321;-77
2023/09/27 02:03:20;;;;;;;11.48;9.45;;;19.10;61.40;;;;;;5009208;28;114098;-78
2023/09/27 02:05:47;;;;;;;14.38;9.80;;;19.00;61.60;;;;;;5025908;28;115222;-78
2023/09/27 02:08:15;;;;;;;10.00;8.98;;;19.00;61.40;;;;;;5008087;28;117848;-79
2023/09/27 02:10:43;;;;;;;10.77;9.30;;;19.00;61.80;;;;;;5026501;28;114120;-78
2023/09/27 02:13:10;;;;;;;10.75;8.82;;;19.00;62.10;;;;;;5026940;28;114274;-79
2023/09/27 02:15:38;;;;;;;12.25;9.27;;;19.00;62.10;;;;;;5025491;28;114886;-78
2023/09/27 02:18:05;;;;;;;12.40;9.15;;;19.00;61.80;;;;;;4991137;28;114595;-78
2023/09/27 02:20:33;;;;;;;11.93;9.35;;;19.00;61.00;;;;;;5026397;28;114432;-78
2023/09/27 02:23:00;;;;;;;10.77;8.45;;;19.00;60.80;;;;;;4992037;28;114245;-78
2023/09/27 02:25:27;;;;;;;13.27;9.13;;;19.00;61.70;;;;;;5025488;28;115158;-79
2023/09/27 02:27:54;;;;;;;16.83;8.80;;;19.00;60.80;;;;;;5007283;28;114662;-79
2023/09/27 02:30:21;;;;;;;10.48;8.57;;;19.00;61.20;;;;;;5026658;28;114306;-79
2023/09/27 02:32:48;;;;;;;11.18;9.05;;;19.00;61.70;;;;;;5026969;28;114285;-79
2023/09/27 02:35:19;;;;;;;10.55;9.23;;;19.00;61.60;;;;;;5025687;28;115128;-79
2023/09/27 02:37:46;;;;;;;11.65;9.23;;;18.90;61.60;;;;;;5007394;28;114700;-79
2023/09/27 02:40:15;;;;;;;11.90;9.15;;;19.00;61.60;;;;;;5026035;28;114044;-80
2023/09/27 02:42:44;;;;;;;9.48;8.10;;;19.00;61.80;;;;;;5026528;28;114804;-79
2023/09/27 02:45:11;;;;;;;9.77;8.52;;;19.00;61.20;;;;;;4991165;28;114979;-78
2023/09/27 02:47:39;;;;;;;13.38;8.82;;;18.90;61.20;;;;;;4991011;28;114627;-78
2023/09/27 02:50:10;;;;;;;11.40;9.13;;;18.90;61.00;;;;;;4975770;28;114374;-79
2023/09/27 02:52:40;;;;;;;11.07;8.48;;;18.90;61.50;;;;;;5026376;28;114319;-79
2023/09/27 02:55:11;;;;;;;11.90;9.00;;;18.90;61.10;;;;;;5025248;28;115386;-79
2023/09/27 02:57:39;;;;;;;11.52;8.43;;;18.90;61.00;;;;;;5006860;28;114706;-78
2023/09/27 03:00:08;;;;;;;11.68;9.00;;;18.90;61.50;;;;;;5026136;28;114257;-79
2023/09/27 03:02:36;;;;;;;12.48;8.20;;;18.90;61.00;;;;;;4992060;28;114390;-79
2023/09/27 03:05:06;;;;;;;9.70;7.80;;;19.00;60.70;;;;;;5006921;28;114926;-79
2023/09/27 03:07:34;;;;;;;11.20;8.15;;;19.00;61.10;;;;;;5025335;28;115736;-79
2023/09/27 03:10:08;;;;;;;10.82;8.30;;;18.90;60.90;;;;;;5008330;28;114295;-79
2023/09/27 03:12:35;;;;;;;10.23;8.52;;;18.90;60.60;;;;;;5008586;28;114357;-79
2023/09/27 03:15:04;;;;;;;10.00;8.85;;;18.80;60.90;;;;;;5007127;28;115057;-78
2023/09/27 03:17:31;;;;;;;10.52;8.23;;;18.80;60.80;;;;;;5024698;28;114631;-77
2023/09/27 03:19:58;;;;;;;9.73;8.02;;;18.80;61.20;;;;;;5007922;28;114428;-78
2023/09/27 03:22:26;;;;;;;11.20;8.52;;;18.80;61.10;;;;;;5008240;28;114414;-78
2023/09/27 03:24:53;;;;;;;9.93;7.93;;;18.80;61.40;;;;;;5007073;28;115418;-79
2023/09/27 03:27:20;;;;;;;10.18;7.93;;;18.80;60.60;;;;;;5024499;28;114498;-79
2023/09/27 03:29:47;;;;;;;9.77;8.00;;;18.80;61.20;;;;;;5007306;28;114143;-78
2023/09/27 03:32:15;;;;;;;11.55;8.18;;;18.80;61.00;;;;;;5007962;28;114371;-78
2023/09/27 03:34:42;;;;;;;8.70;7.80;;;18.80;60.00;;;;;;5006795;28;114950;-79
2023/09/27 03:37:09;;;;;;;11.48;7.72;;;18.80;60.00;;;;;;5006826;28;114762;-78
2023/09/27 03:39:36;;;;;;;12.32;8.02;;;18.70;60.80;;;;;;5007617;28;114199;-78
2023/09/27 03:42:03;;;;;;;12.02;8.05;;;18.70;60.90;;;;;;5007673;28;114273;-78
2023/09/27 03:44:33;;;;;;;9.65;7.70;;;18.70;60.60;;;;;;5006680;28;114939;-78
2023/09/27 03:47:01;;;;;;;12.40;7.63;;;18.70;61.00;;;;;;5006423;28;114896;-78
2023/09/27 03:49:29;;;;;;;9.57;7.55;;;18.70;60.90;;;;;;5007489;28;114757;-78
2023/09/27 03:51:56;;;;;;;9.98;7.55;;;18.70;61.00;;;;;;5007474;28;114422;-78
2023/09/27 03:54:24;;;;;;;10.77;7.88;;;18.70;61.10;;;;;;5005980;28;114919;-79
2023/09/27 03:56:52;;;;;;;11.10;7.75;;;18.70;61.00;;;;;;5006525;28;114790;-78
2023/09/27 03:59:19;;;;;;;12.02;7.60;;;18.60;61.30;;;;;;5007437;28;114428;-79
2023/09/27 04:01:46;;;;;;;9.15;7.72;;;18.60;61.10;;;;;;5025501;28;114332;-78
2023/09/27 04:04:13;;;;;;;14.38;8.00;;;18.70;60.20;;;;;;5006623;28;115304;-80
2023/09/27 04:06:40;;;;;;;9.98;7.55;;;18.70;59.70;;;;;;5006460;28;114953;-77
2023/09/27 04:09:08;;;;;;;9.35;8.15;;;18.60;59.90;;;;;;4993516;28;114378;-80
2023/09/27 04:11:36;;;;;;;9.55;7.72;;;18.60;60.50;;;;;;5010332;28;114408;-80
2023/09/27 04:14:04;;;;;;;8.88;7.18;;;18.60;60.20;;;;;;5026653;28;115224;-77
2023/09/27 04:16:31;;;;;;;8.85;7.78;;;18.60;60.90;;;;;;5027830;28;114888;-78
2023/09/27 04:18:58;;;;;;;10.35;7.07;;;18.60;60.20;;;;;;5027315;28;114175;-79
2023/09/27 04:21:25;;;;;;;8.85;7.00;;;18.60;60.50;;;;;;5009610;28;114325;-78
2023/09/27 04:23:56;;;;;;;8.95;7.68;;;18.60;60.60;;;;;;5027550;28;114623;-78
2023/09/27 04:26:23;;;;;;;8.75;7.38;;;18.60;60.20;;;;;;5027404;28;114645;-78
2023/09/27 04:28:52;;;;;;;9.25;7.32;;;18.60;60.20;;;;;;5010744;28;114353;-79
2023/09/27 04:31:19;;;;;;;11.45;7.72;;;18.60;60.40;;;;;;5028461;28;114214;-78
2023/09/27 04:33:47;;;;;;;8.25;7.45;;;18.60;59.00;;;;;;5009488;28;114983;-77
2023/09/27 04:36:17;;;;;;;9.55;7.43;;;18.50;59.90;;;;;;5009839;28;115346;-77
2023/09/27 04:38:45;;;;;;;10.32;7.97;;;18.50;60.20;;;;;;5028297;28;114071;-78
2023/09/27 04:41:14;;;;;;;8.68;6.78;;;18.50;59.90;;;;;;5010224;28;114350;-78
2023/09/27 04:43:44;;;;;;;9.77;7.32;;;18.60;59.70;;;;;;5009149;28;115473;-79
2023/09/27 04:46:14;;;;;;;10.70;7.20;;;18.60;60.20;;;;;;5026971;28;115888;-78
2023/09/27 04:48:41;;;;;;;9.20;7.72;;;18.60;59.90;;;;;;5028042;28;114372;-78
2023/09/27 04:51:09;;;;;;;9.85;7.20;;;18.60;59.10;;;;;;5010033;28;114103;-78
2023/09/27 04:53:37;;;;;;;9.57;7.55;;;18.60;60.20;;;;;;5027050;28;114866;-78
2023/09/27 04:56:06;;;;;;;9.63;7.93;;;18.70;60.20;;;;;;5009244;28;114750;-79
2023/09/27 04:58:33;;;;;;;11.40;8.23;;;18.60;60.10;;;;;;4993516;28;114270;-79
2023/09/27 05:01:05;;;;;;;8.95;7.90;;;18.70;59.90;;;;;;5028326;28;114400;-78
2023/09/27 05:03:32;;;;;;;9.45;8.25;;;18.70;59.00;;;;;;5026967;28;114879;-78
2023/09/27 05:06:00;;;;;;;11.02;7.75;;;18.70;59.80;;;;;;5026889;28;114591;-78
2023/09/27 05:08:27;;;;;;;10.60;7.68;;;18.80;58.80;;;;;;5027292;28;114016;-79
2023/09/27 05:10:55;;;;;;;11.02;7.75;;;18.80;58.40;;;;;;5027799;28;114730;-79
2023/09/27 05:13:23;;;;;;;10.38;8.52;;;18.80;58.90;;;;;;5009543;28;114887;-77
2023/09/27 05:15:52;;;;;;;11.23;7.55;;;18.90;58.80;;;;;;5026831;28;114597;-79
2023/09/27 05:18:20;;;;;;;9.32;7.40;;;18.90;57.20;;;;;;5027260;28;114222;-78
2023/09/27 05:20:47;;;;;;;12.13;7.90;;;18.90;56.50;;;;;;4992153;28;114303;-79
2023/09/27 05:23:14;;;;;;;12.10;7.90;;;18.90;56.00;;;;;;5025628;28;115156;-78
2023/09/27 05:25:41;;;;;;;9.07;7.38;;;18.90;56.70;;;;;;5026950;28;114680;-79
2023/09/27 05:28:09;;;;;;;9.73;7.50;;;18.90;56.20;;;;;;5027410;28;114388;-78
2023/09/27 05:30:36;;;;;;;11.20;7.82;;;18.90;57.00;;;;;;5009676;28;114293;-78
2023/09/27 05:33:06;;;;;;;11.05;7.38;;;19.00;55.70;;;;;;5008120;28;115430;-78
2023/09/27 05:35:33;;;;;;;10.25;6.68;;;19.00;55.90;;;;;;5026586;28;114628;-77
2023/09/27 05:38:00;;;;;;;11.20;6.85;;;19.00;56.80;;;;;;5027078;28;114223;-79
2023/09/27 05:40:27;;;;;;;11.30;6.95;;;19.20;56.10;;;;;;5009447;28;114317;-79
2023/09/27 05:42:55;;;;;;;9.65;6.72;;;19.30;55.30;;;;;;5026205;28;114926;-79
2023/09/27 05:45:23;;;;;;;14.23;7.53;;;19.30;56.50;;;;;;5026315;28;114634;-79
2023/09/27 05:47:50;;;;;;;13.10;6.95;;;19.50;55.60;;;;;;5026594;28;114240;-79
2023/09/27 05:50:18;;;;;;;11.32;7.10;;;19.70;54.20;;;;;;5027566;28;114414;-77
2023/09/27 05:52:46;;;;;;;12.40;6.75;;;19.70;54.50;;;;;;5008220;28;115260;-79
2023/09/27 05:55:15;;;;;;;12.75;7.38;;;19.80;54.40;;;;;;5008105;28;114726;-79
2023/09/27 05:57:43;;;;;;;15.50;8.20;;;19.90;53.40;;;;;;5026619;28;114073;-80
2023/09/27 06:00:26;;;;;;;9.05;6.53;;;20.00;53.00;;;;;;5026617;28;114311;-80
2023/09/27 06:02:54;;;;;;;11.25;6.68;;;20.10;53.70;;;;;;5025550;28;116438;-81
2023/09/27 06:05:21;;;;;;;11.05;7.05;;;20.20;52.90;;;;;;5025195;28;114968;-79
2023/09/27 06:07:49;;;;;;;12.43;6.63;;;20.30;52.90;;;;;;5026894;28;114352;-78
2023/09/27 06:10:16;;;;;;;10.07;6.75;;;20.30;51.80;;;;;;5008978;28;114343;-79
2023/09/27 06:12:43;;;;;;;11.07;6.57;;;20.50;51.90;;;;;;5025838;28;114863;-78
2023/09/27 06:15:12;;;;;;;10.52;6.32;;;20.60;51.00;;;;;;5026247;28;114562;-78
2023/09/27 06:17:39;;;;;;;13.50;6.72;;;20.70;51.60;;;;;;4992774;28;114283;-80
2023/09/27 06:20:08;;;;;;;13.02;6.43;;;20.70;50.80;;;;;;5026502;28;114317;-80
2023/09/27 06:22:36;;;;;;;11.18;5.93;;;20.80;51.00;;;;;;5007689;28;115170;-79
2023/09/27 06:25:06;;;;;;;10.30;6.43;;;20.80;51.00;;;;;;5024420;28;114775;-79
2023/09/27 06:27:34;;;;;;;10.13;6.82;;;20.80;50.90;;;;;;5008026;28;114487;-79
2023/09/27 06:30:02;;;;;;;8.07;6.47;;;20.90;51.00;;;;;;5008806;28;114281;-78
2023/09/27 06:32:29;;;;;;;9.35;6.45;;;21.00;50.70;;;;;;5025440;28;114843;-79
2023/09/27 06:34:57;;;;;;;9.93;6.38;;;21.10;49.70;;;;;;5025617;28;114587;-79
2023/09/27 06:37:24;;;;;;;10.50;6.72;;;21.00;49.70;;;;;;4975253;28;114285;-79
2023/09/27 06:39:51;;;;;;;10.57;6.90;;;21.10;49.90;;;;;;5026871;28;114235;-79
2023/09/27 06:42:19;;;;;;;11.52;6.93;;;21.30;49.80;;;;;;5007469;28;114994;-80
2023/09/27 06:44:46;;;;;;;8.63;6.60;;;21.30;50.80;;;;;;5025415;28;114712;-79
2023/09/27 06:47:13;;;;;;;10.60;6.72;;;21.40;51.20;;;;;;5025832;28;114243;-79
2023/09/27 06:49:40;;;;;;;17.10;6.75;;;21.50;49.10;;;;;;5026178;28;114085;-79
2023/09/27 06:52:07;;;;;;;9.88;6.15;;;21.50;48.90;;;;;;5025236;28;114896;-78
2023/09/27 06:54:34;;;;;;;14.38;7.15;;;21.50;49.80;;;;;;5025261;28;114594;-78
2023/09/27 06:57:01;;;;;;;11.40;6.78;;;21.60;48.90;;;;;;5008336;28;114352;-80
2023/09/27 06:59:29;;;;;;;10.15;7.20;;;21.70;49.70;;;;;;5008205;28;114327;-79
2023/09/27 07:01:56;;;;;;;8.88;6.30;;;21.80;50.40;;;;;;5025043;28;115514;-79
2023/09/27 07:04:23;;;;;;;14.82;6.78;;;21.80;49.80;;;;;;5007432;28;115160;-79
2023/09/27 07:06:51;;;;;;;10.15;5.68;;;21.90;48.60;;;;;;4991079;28;114268;-80
2023/09/27 07:09:20;;;;;;;12.15;6.28;;;22.00;48.70;;;;;;5026015;28;114223;-79
2023/09/27 07:11:48;;;;;;;14.45;6.18;;;22.10;48.30;;;;;;5024565;28;115298;-79
2023/09/27 07:14:17;;;;;;;10.43;5.72;;;22.20;48.40;;;;;;5025230;28;114903;-79
2023/09/27 07:16:46;;;;;;;15.32;6.10;;;22.30;48.50;;;;;;5025913;28;114160;-80
2023/09/27 07:19:27;;;;;;;11.48;6.07;;;22.30;47.80;;;;;;5009971;28;114449;-79
2023/09/27 07:21:54;;;;;;;8.80;5.75;;;22.40;48.10;;;;;;5007015;28;115776;-79
2023/09/27 07:24:22;;;;;;;10.50;6.57;;;22.50;47.90;;;;;;5025156;28;115000;-79
2023/09/27 07:26:52;;;;;;;7.63;6.22;;;22.50;47.90;;;;;;5025493;28;114283;-80
2023/09/27 07:29:20;;;;;;;8.38;5.75;;;22.60;47.50;;;;;;5008068;28;114358;-79
2023/09/27 07:31:47;;;;;;;11.65;6.38;;;22.60;47.60;;;;;;5024817;28;114960;-79
2023/09/27 07:34:14;;;;;;;11.02;5.75;;;22.70;47.70;;;;;;5024934;28;114696;-79
2023/09/27 07:36:44;;;;;;;9.80;6.28;;;22.80;47.60;;;;;;5006345;28;114413;-79
2023/09/27 07:39:11;;;;;;;12.93;6.72;;;22.90;47.20;;;;;;5008025;28;114387;-79
2023/09/27 07:41:38;;;;;;;10.90;6.32;;;23.00;47.20;;;;;;5024211;28;115268;-79
2023/09/27 07:44:09;;;;;;;9.00;5.88;;;23.00;46.90;;;;;;5035692;28;116286;-79
2023/09/27 07:46:36;;;;;;;9.50;5.80;;;23.10;46.50;;;;;;5039044;28;113969;-80
2023/09/27 07:49:03;;;;;;;12.13;5.97;;;23.10;45.80;;;;;;5029387;28;114270;-79
2023/09/27 07:51:31;;;;;;;10.15;6.88;;;23.10;45.60;;;;;;5028617;28;114891;-78
2023/09/27 07:53:58;;;;;;;8.55;5.53;;;23.20;45.10;;;;;;5028837;28;114667;-79
2023/09/27 07:56:28;;;;;;;14.55;6.18;;;23.20;44.60;;;;;;5014182;28;114267;-80
2023/09/27 07:58:55;;;;;;;10.52;7.20;;;23.00;45.30;;;;;;5032611;28;114163;-78
2023/09/27 08:01:23;;;;;;;11.00;6.35;;;23.10;45.70;;;;;;5027871;28;115128;-79
2023/09/27 08:03:51;;;;;;;14.57;6.97;;;23.20;46.00;;;;;;5028610;28;114705;-80
2023/09/27 08:06:20;;;;;;;14.55;6.68;;;23.30;46.30;;;;;;5029327;28;114251;-81
2023/09/27 08:08:48;;;;;;;11.90;6.60;;;23.40;46.70;;;;;;5029421;28;114363;-80
2023/09/27 08:11:15;;;;;;;14.07;6.50;;;23.50;46.70;;;;;;5027907;28;115155;-80
2023/09/27 08:13:43;;;;;;;11.05;6.60;;;23.70;46.10;;;;;;5028056;28;114792;-79
2023/09/27 08:16:10;;;;;;;12.45;6.65;;;23.80;45.90;;;;;;5029010;28;114246;-79
2023/09/27 08:18:37;;;;;;;13.10;6.90;;;23.80;45.50;;;;;;5028342;28;114339;-79
2023/09/27 08:21:04;;;;;;;10.10;6.50;;;23.90;45.40;;;;;;5010286;28;114860;-80
2023/09/27 08:23:32;;;;;;;8.63;6.03;;;23.90;45.00;;;;;;5009861;28;114648;-80
2023/09/27 08:25:59;;;;;;;9.90;6.72;;;23.90;44.60;;;;;;5010889;28;114263;-79
2023/09/27 08:28:29;;;;;;;11.32;6.20;;;24.00;44.50;;;;;;5010363;28;114532;-79
2023/09/27 08:31:00;;;;;;;8.57;6.75;;;24.00;43.90;;;;;;5027853;28;114938;-79
2023/09/27 08:33:27;;;;;;;9.52;6.80;;;24.10;44.50;;;;;;5009920;28;115638;-79
2023/09/27 08:35:55;;;;;;;9.77;6.32;;;24.10;44.20;;;;;;5028700;28;114207;-79
2023/09/27 08:38:26;;;;;;;13.02;6.00;;;24.20;43.70;;;;;;5028658;28;114123;-78
2023/09/27 08:40:53;;;;;;;10.52;5.78;;;24.30;43.50;;;;;;5027479;28;114996;-79
2023/09/27 08:43:22;;;;;;;8.93;6.05;;;24.30;43.60;;;;;;5010085;28;114532;-80
2023/09/27 08:45:51;;;;;;;11.43;5.80;;;24.40;43.10;;;;;;4994302;28;114468;-80
2023/09/27 08:48:22;;;;;;;7.97;5.35;;;24.40;42.80;;;;;;5010622;28;114234;-79
2023/09/27 08:50:49;;;;;;;12.18;5.90;;;24.40;42.40;;;;;;5027014;28;115513;-79
2023/09/27 08:53:17;;;;;;;10.23;5.93;;;24.60;41.60;;;;;;4993039;27;114653;-81
2023/09/27 08:55:48;;;;;;;12.93;6.82;;;24.50;42.20;;;;;;4992733;28;114237;-83
2023/09/27 08:58:19;;;;;;;9.02;5.22;;;24.60;41.90;;;;;;5011426;28;114509;-82
2023/09/27 09:00:47;;;;;;;11.30;6.43;;;24.60;42.10;;;;;;5027121;28;116378;-83
2023/09/27 09:03:14;;;;;;;12.10;6.13;;;24.70;40.40;;;;;;5009417;28;115159;-82
2023/09/27 09:05:42;;;;;;;7.50;5.30;;;24.80;40.10;;;;;;5010078;28;114177;-82
2023/09/27 09:08:09;;;;;;;7.45;4.80;;;24.70;39.60;;;;;;4994374;28;114242;-83
2023/09/27 09:10:37;;;;;;;10.95;5.15;;;24.80;39.60;;;;;;5027299;28;114868;-82
2023/09/27 09:13:04;;;;;;;8.40;4.75;;;24.80;39.70;;;;;;5027222;28;114628;-83
2023/09/27 09:15:35;;;;;;;10.40;4.68;;;24.80;39.10;;;;;;5009858;28;114492;-83
2023/09/27 09:18:06;;;;;;;10.57;4.68;;;24.80;39.00;;;;;;5027800;28;114138;-82
2023/09/27 09:20:48;;;;;;;7.68;4.82;;;24.80;38.90;;;;;;5026713;28;115067;-81
2023/09/27 09:23:33;;;;;;;11.88;5.88;;;24.80;38.50;;;;;;4994770;28;114786;-82
2023/09/27 09:26:05;;;;;;;9.00;4.88;;;24.80;39.60;;;;;;5010647;28;114232;-82
2023/09/27 09:28:35;;;;;;;7.25;5.65;;;24.90;38.90;;;;;;4993842;28;114371;-82
2023/09/27 09:31:02;;;;;;;8.05;4.97;;;24.90;38.50;;;;;;5009011;28;115051;-81
2023/09/27 09:33:29;;;;;;;8.82;4.53;;;25.00;38.00;;;;;;5008883;28;115130;-82
2023/09/27 09:35:57;;;;;;;11.10;5.50;;;25.00;38.00;;;;;;5009686;28;114311;-83
2023/09/27 09:38:31;;;;;;;9.98;4.88;;;25.10;38.50;;;;;;5009543;28;114322;-82
2023/09/27 09:41:05;;;;;;;7.90;4.50;;;25.20;38.40;;;;;;5009025;28;115224;-86
2023/09/27 09:43:36;;;;;;;8.52;4.65;;;25.20;36.80;;;;;;5026358;28;114950;-82
2023/09/27 09:46:08;;;;;;;12.13;5.20;;;25.30;36.90;;;;;;4976928;28;114240;-82
2023/09/27 09:48:36;;;;;;;5.72;4.30;;;25.30;37.80;;;;;;4994544;28;114312;-82
2023/09/27 09:51:05;;;;;;;7.50;4.70;;;25.30;37.20;;;;;;5026272;28;115027;-83
2023/09/27 09:53:39;;;;;;;11.15;4.57;;;25.40;37.40;;;;;;5026561;28;115211;-81
2023/09/27 09:56:07;;;;;;;9.77;4.55;;;25.50;36.30;;;;;;5010612;28;114091;-83
2023/09/27 09:59:04;;;;;;;8.80;4.07;;;25.40;36.50;;;;;;5013033;28;114146;-82
2023/09/27 10:01:32;;;;;;;9.32;4.60;;;25.50;36.40;;;;;;4992248;28;114919;-83
2023/09/27 10:04:03;;;;;;;9.75;4.70;;;25.50;35.90;;;;;;5026005;28;114650;-82
2023/09/27 10:06:32;;;;;;;10.57;4.30;;;25.40;35.60;;;;;;5009195;28;114476;-82
2023/09/27 10:09:14;;;;;;;9.10;4.35;;;25.40;34.90;;;;;;4980183;28;114220;-83
2023/09/27 10:11:44;;;;;;;5.93;4.07;;;25.40;35.20;;;;;;4991906;28;115435;-82
2023/09/27 10:14:14;;;;;;;10.32;4.50;;;25.40;34.80;;;;;;4993036;28;114889;-83
2023/09/27 10:16:41;;;;;;;9.65;4.82;;;25.40;35.50;;;;;;4975978;28;114331;-82
2023/09/27 10:19:08;;;;;;;9.15;4.70;;;25.50;34.70;;;;;;5008879;28;114941;-83
2023/09/27 10:21:38;;;;;;;8.60;4.82;;;25.50;35.10;;;;;;5025869;28;115140;-83
2023/09/27 10:24:10;;;;;;;34.70;10.32;;;25.60;35.20;;;;;;4974905;27;114679;-83
2023/09/27 10:26:39;;;;;;;10.55;3.72;;;25.70;35.30;;;;;;5028624;27;114233;-83
2023/09/27 10:29:06;;;;;;;8.00;4.13;;;25.80;34.50;;;;;;5026461;27;115652;-83
2023/09/27 10:31:40;;;;;;;11.95;5.95;;;25.80;34.80;;;;;;5014890;28;115363;-82
2023/09/27 10:34:26;;;;;;;12.27;4.53;;;25.80;34.70;;;;;;5039878;27;114619;-83
2023/09/27 10:36:54;;;;;;;6.65;3.97;;;25.90;34.60;;;;;;5024795;27;114273;-81
2023/09/27 10:39:39;;;;;;;8.90;4.18;;;25.80;33.20;;;;;;5040041;27;114246;-82
2023/09/27 10:42:06;;;;;;;8.05;4.07;;;25.70;33.00;;;;;;5048207;27;114888;-82
2023/09/27 10:44:43;;;;;;;8.52;3.90;;;25.80;33.60;;;;;;5027579;27;114630;-83
2023/09/27 10:47:13;;;;;;;10.75;7.88;;;25.70;33.20;;;;;;5029664;27;114270;-83
2023/09/27 10:49:43;;;;;;;9.10;3.80;;;25.70;33.90;;;;;;5047907;27;114492;-83
2023/09/27 10:52:20;;;;;;;10.52;4.50;;;25.70;32.90;;;;;;5018095;27;114982;-82
2023/09/27 10:54:48;;;;;;;9.93;4.53;;;25.80;33.60;;;;;;5049890;27;114660;-82
2023/09/27 10:57:15;;;;;;;7.55;4.72;;;25.80;33.50;;;;;;5046459;27;114206;-83
2023/09/27 10:59:46;;;;;;;11.63;5.40;;;25.80;33.90;;;;;;5029272;27;114191;-81
2023/09/27 11:02:13;;;;;;;9.95;4.50;;;25.80;34.20;;;;;;4995423;27;115793;-82
2023/09/27 11:04:41;;;;;;;10.00;4.60;;;25.80;33.90;;;;;;5027991;27;114562;-82
2023/09/27 11:07:08;;;;;;;7.05;4.05;;;25.80;34.50;;;;;;5028481;27;114131;-82
2023/09/27 11:09:45;;;;;;;6.55;3.80;;;25.80;34.40;;;;;;5046939;27;114219;-82
2023/09/27 11:12:12;;;;;;;8.15;4.28;;;25.80;33.70;;;;;;4977866;27;117802;-81
2023/09/27 11:14:43;;;;;;;6.32;4.20;;;25.80;33.70;;;;;;5011563;27;115317;-82
2023/09/27 11:17:25;;;;;;;9.90;3.95;;;25.80;33.30;;;;;;5011547;27;114639;-82
2023/09/27 11:19:53;;;;;;;8.98;4.47;;;25.80;32.90;;;;;;5017553;27;114238;-82
2023/09/27 11:22:30;;;;;;;6.88;4.28;;;25.80;32.90;;;;;;5014536;27;116110;-82
2023/09/27 11:24:57;;;;;;;5.40;3.67;;;25.80;33.20;;;;;;5049150;27;114979;-82
2023/09/27 11:27:24;;;;;;;9.13;3.67;;;25.80;33.10;;;;;;5049775;27;114526;-82
2023/09/27 11:29:52;;;;;;;7.25;3.90;;;25.80;33.00;;;;;;5015607;27;114238;-81
2023/09/27 11:32:20;;;;;;;8.38;3.83;;;25.80;33.20;;;;;;5049606;27;114995;-82
2023/09/27 11:34:57;;;;;;;9.45;4.32;;;25.80;33.30;;;;;;5047912;27;115721;-81
2023/09/27 11:37:24;;;;;;;5.43;3.28;;;25.80;32.90;;;;;;5032014;27;114148;-82
2023/09/27 11:39:54;;;;;;;8.52;4.15;;;25.80;33.00;;;;;;5015937;27;114526;-82
2023/09/27 11:42:22;;;;;;;9.73;3.88;;;25.80;33.20;;;;;;5048853;27;115145;-82
2023/09/27 11:45:05;;;;;;;7.70;4.63;;;25.80;33.50;;;;;;5014361;27;115032;-82
2023/09/27 11:47:44;;;;;;;6.50;4.00;;;25.80;33.60;;;;;;5016456;27;114146;-82
2023/09/27 11:50:11;;;;;;;7.70;4.03;;;25.80;33.60;;;;;;5033765;27;114370;-82
2023/09/27 11:52:38;;;;;;;7.63;4.03;;;25.90;33.50;;;;;;5030780;27;115039;-81
2023/09/27 11:55:06;;;;;;;8.50;4.28;;;26.00;33.20;;;;;;5029623;27;114749;-82
2023/09/27 11:57:33;;;;;;;7.13;3.67;;;26.00;33.20;;;;;;5049361;27;114128;-82
2023/09/27 12:00:00;;;;;;;11.23;4.43;;;26.10;33.10;;;;;;5031854;27;114378;-82
2023/09/27 12:02:30;;;;;;;6.90;3.90;;;26.10;33.40;;;;;;5030446;27;118460;-82
2023/09/27 12:05:09;;;;;;;8.90;4.25;;;26.10;33.10;;;;;;5049074;27;114928;-82
2023/09/27 12:07:37;;;;;;;7.30;4.50;;;26.10;33.30;;;;;;5015031;27;114192;-82
2023/09/27 12:10:05;;;;;;;8.10;4.22;;;26.00;33.20;;;;;;5014417;27;114372;-82
2023/09/27 12:12:33;;;;;;;6.78;4.20;;;26.00;33.10;;;;;;5012848;27;117512;-81
2023/09/27 12:15:00;;;;;;;7.55;3.70;;;26.00;32.90;;;;;;5048195;27;114921;-81
2023/09/27 12:17:28;;;;;;;7.75;4.40;;;26.00;33.10;;;;;;5048738;27;115212;-81
2023/09/27 12:19:56;;;;;;;6.22;4.20;;;25.90;33.30;;;;;;5049025;27;114067;-83
2023/09/27 12:22:24;;;;;;;7.47;4.15;;;25.90;33.20;;;;;;5029745;27;116030;-82
2023/09/27 12:24:52;;;;;;;9.50;3.92;;;25.90;33.60;;;;;;5029113;27;117615;-83
2023/09/27 12:27:19;;;;;;;7.70;4.10;;;25.90;33.10;;;;;;5048333;27;114104;-83
2023/09/27 12:29:46;;;;;;;6.50;4.00;;;25.90;33.10;;;;;;5049106;27;114196;-82
2023/09/27 12:32:14;;;;;;;7.93;3.72;;;25.80;33.20;;;;;;5030243;27;115052;-82
2023/09/27 12:34:41;;;;;;;8.30;3.75;;;25.90;33.50;;;;;;5013011;27;115242;-81
2023/09/27 12:37:08;;;;;;;5.82;4.13;;;25.80;33.50;;;;;;5030400;27;114341;-81